Terminal Aerodrome Forecast
Issued by NWS

Home | Current Version | Previous Version | Graphics & Text | Print | Product List | Glossary On
Versions: 1 2 3 4 5 6 7 8 9 10 11 12 13 14
722
FTUS43 KBIS 171120
TAFDIK
TAF
KDIK 171120Z 1712/1812 16010KT P6SM SKC
     FM171900 VRB04KT P6SM SCT250
     FM172000 34016KT P6SM VCTS SCT090CB BKN250
     FM180600 32005KT P6SM FEW200=

USA.gov is the U.S. government's official web portal to all federal, state and local government web resources and services.